sensor_id;sensor_type;location;lat;lon;timestamp;pressure;altitude;pressure_sealevel;temperature;humidity
10518;BME280;5307;42.548;22.968;2023-08-06T00:02:00;92774.03;;;19.47;100.00
10518;BME280;5307;42.548;22.968;2023-08-06T00:04:27;92780.03;;;19.78;100.00
10518;BME280;5307;42.548;22.968;2023-08-06T00:06:54;92785.38;;;19.76;100.00
10518;BME280;5307;42.548;22.968;2023-08-06T00:09:21;92776.19;;;19.81;100.00
10518;BME280;5307;42.548;22.968;2023-08-06T00:11:48;92773.44;;;19.68;100.00
10518;BME280;5307;42.548;22.968;2023-08-06T00:14:15;92773.13;;;19.71;100.00
10518;BME280;5307;42.548;22.968;2023-08-06T00:16:43;92794.75;;;19.60;100.00
10518;BME280;5307;42.548;22.968;2023-08-06T00:19:12;92799.84;;;19.55;100.00
10518;BME280;5307;42.548;22.968;2023-08-06T00:21:38;92775.69;;;19.11;100.00
10518;BME280;5307;42.548;22.968;2023-08-06T00:24:05;92752.44;;;18.87;100.00
10518;BME280;5307;42.548;22.968;2023-08-06T00:26:32;92750.81;;;19.24;100.00
10518;BME280;5307;42.548;22.968;2023-08-06T00:28:59;92753.53;;;19.11;100.00
10518;BME280;5307;42.548;22.968;2023-08-06T00:31:25;92757.22;;;19.32;100.00
10518;BME280;5307;42.548;22.968;2023-08-06T00:33:52;92766.84;;;19.58;100.00
10518;BME280;5307;42.548;22.968;2023-08-06T00:36:20;92748.72;;;19.43;100.00
10518;BME280;5307;42.548;22.968;2023-08-06T00:38:47;92744.66;;;19.44;100.00
10518;BME280;5307;42.548;22.968;2023-08-06T00:41:14;92762.47;;;19.62;100.00
10518;BME280;5307;42.548;22.968;2023-08-06T00:43:41;92764.91;;;19.79;100.00
10518;BME280;5307;42.548;22.968;2023-08-06T00:46:07;92745.28;;;19.50;100.00
10518;BME280;5307;42.548;22.968;2023-08-06T00:48:33;92746.78;;;19.51;100.00
10518;BME280;5307;42.548;22.968;2023-08-06T00:51:01;92759.50;;;19.86;100.00
10518;BME280;5307;42.548;22.968;2023-08-06T00:53:29;92763.63;;;19.67;100.00
10518;BME280;5307;42.548;22.968;2023-08-06T00:55:56;92757.53;;;18.83;100.00
10518;BME280;5307;42.548;22.968;2023-08-06T00:58:24;92739.72;;;19.24;100.00
10518;BME280;5307;42.548;22.968;2023-08-06T01:00:51;92726.53;;;19.30;100.00
10518;BME280;5307;42.548;22.968;2023-08-06T01:03:18;92725.69;;;19.22;100.00
10518;BME280;5307;42.548;22.968;2023-08-06T01:05:44;92739.16;;;19.58;100.00
10518;BME280;5307;42.548;22.968;2023-08-06T01:08:30;92736.44;;;19.52;100.00
10518;BME280;5307;42.548;22.968;2023-08-06T01:11:08;92735.59;;;19.31;100.00
10518;BME280;5307;42.548;22.968;2023-08-06T01:13:41;92740.28;;;19.49;100.00
10518;BME280;5307;42.548;22.968;2023-08-06T01:16:09;92736.41;;;19.12;100.00
10518;BME280;5307;42.548;22.968;2023-08-06T01:18:36;92709.47;;;18.99;100.00
10518;BME280;5307;42.548;22.968;2023-08-06T01:21:06;92704.25;;;19.09;100.00
10518;BME280;5307;42.548;22.968;2023-08-06T01:23:32;92708.66;;;19.44;100.00
10518;BME280;5307;42.548;22.968;2023-08-06T01:26:05;92716.22;;;19.31;100.00
10518;BME280;5307;42.548;22.968;2023-08-06T01:28:52;92707.59;;;19.47;100.00
10518;BME280;5307;42.548;22.968;2023-08-06T01:31:27;92717.81;;;19.66;100.00
10518;BME280;5307;42.548;22.968;2023-08-06T01:33:58;92703.44;;;19.80;100.00
10518;BME280;5307;42.548;22.968;2023-08-06T01:36:28;92708.22;;;19.80;100.00
10518;BME280;5307;42.548;22.968;2023-08-06T01:38:55;92705.88;;;19.84;100.00
10518;BME280;5307;42.548;22.968;2023-08-06T01:41:22;92698.00;;;19.75;100.00
10518;BME280;5307;42.548;22.968;2023-08-06T01:43:49;92690.88;;;19.66;100.00
10518;BME280;5307;42.548;22.968;2023-08-06T01:46:16;92698.84;;;19.70;100.00
10518;BME280;5307;42.548;22.968;2023-08-06T01:48:43;92706.63;;;19.45;100.00
10518;BME280;5307;42.548;22.968;2023-08-06T01:51:10;92700.59;;;19.60;100.00
10518;BME280;5307;42.548;22.968;2023-08-06T01:53:38;92699.63;;;19.57;100.00
10518;BME280;5307;42.548;22.968;2023-08-06T01:56:05;92692.06;;;19.71;100.00
10518;BME280;5307;42.548;22.968;2023-08-06T01:58:31;92676.59;;;19.75;100.00
10518;BME280;5307;42.548;22.968;2023-08-06T02:00:58;92672.13;;;19.72;100.00
10518;BME280;5307;42.548;22.968;2023-08-06T02:03:25;92679.56;;;19.77;100.00
10518;BME280;5307;42.548;22.968;2023-08-06T02:05:52;92699.38;;;19.81;100.00
10518;BME280;5307;42.548;22.968;2023-08-06T02:08:19;92697.47;;;19.63;100.00
10518;BME280;5307;42.548;22.968;2023-08-06T02:10:47;92698.41;;;19.52;100.00
10518;BME280;5307;42.548;22.968;2023-08-06T02:13:14;92700.03;;;19.48;100.00
10518;BME280;5307;42.548;22.968;2023-08-06T02:15:43;92706.31;;;19.48;100.00
10518;BME280;5307;42.548;22.968;2023-08-06T02:18:12;92707.63;;;19.61;100.00
10518;BME280;5307;42.548;22.968;2023-08-06T02:20:40;92697.91;;;19.67;100.00
10518;BME280;5307;42.548;22.968;2023-08-06T02:23:07;92693.94;;;19.49;100.00
10518;BME280;5307;42.548;22.968;2023-08-06T02:25:34;92695.88;;;19.15;100.00
10518;BME280;5307;42.548;22.968;2023-08-06T02:28:02;92702.25;;;19.36;100.00
10518;BME280;5307;42.548;22.968;2023-08-06T02:30:29;92711.53;;;19.39;100.00
10518;BME280;5307;42.548;22.968;2023-08-06T02:32:56;92711.88;;;19.62;100.00
10518;BME280;5307;42.548;22.968;2023-08-06T02:35:23;92705.91;;;19.71;100.00
10518;BME280;5307;42.548;22.968;2023-08-06T02:37:49;92699.31;;;19.61;100.00
10518;BME280;5307;42.548;22.968;2023-08-06T02:40:16;92688.31;;;19.68;100.00
10518;BME280;5307;42.548;22.968;2023-08-06T02:42:43;92687.53;;;19.81;100.00
10518;BME280;5307;42.548;22.968;2023-08-06T02:45:11;92687.25;;;19.71;100.00
10518;BME280;5307;42.548;22.968;2023-08-06T02:47:38;92688.00;;;19.85;100.00
10518;BME280;5307;42.548;22.968;2023-08-06T02:50:06;92681.00;;;19.58;100.00
10518;BME280;5307;42.548;22.968;2023-08-06T02:52:33;92680.97;;;19.44;100.00
10518;BME280;5307;42.548;22.968;2023-08-06T02:54:59;92696.09;;;19.43;100.00
10518;BME280;5307;42.548;22.968;2023-08-06T02:57:26;92697.88;;;19.54;100.00
10518;BME280;5307;42.548;22.968;2023-08-06T02:59:53;92708.66;;;19.31;100.00
10518;BME280;5307;42.548;22.968;2023-08-06T03:02:21;92717.19;;;19.46;100.00
10518;BME280;5307;42.548;22.968;2023-08-06T03:04:48;92714.19;;;19.44;100.00
10518;BME280;5307;42.548;22.968;2023-08-06T03:07:15;92715.72;;;19.59;100.00
10518;BME280;5307;42.548;22.968;2023-08-06T03:09:41;92716.44;;;19.46;100.00
10518;BME280;5307;42.548;22.968;2023-08-06T03:12:08;92704.91;;;19.15;100.00
10518;BME280;5307;42.548;22.968;2023-08-06T03:14:35;92710.66;;;19.04;100.00
10518;BME280;5307;42.548;22.968;2023-08-06T03:17:02;92724.72;;;19.19;100.00
10518;BME280;5307;42.548;22.968;2023-08-06T03:19:30;92717.59;;;19.24;100.00
10518;BME280;5307;42.548;22.968;2023-08-06T03:21:57;92720.34;;;19.37;100.00
10518;BME280;5307;42.548;22.968;2023-08-06T03:24:50;92726.97;;;19.34;100.00
10518;BME280;5307;42.548;22.968;2023-08-06T03:27:17;92732.84;;;19.44;100.00
10518;BME280;5307;42.548;22.968;2023-08-06T03:29:43;92732.09;;;19.30;100.00
10518;BME280;5307;42.548;22.968;2023-08-06T03:32:10;92727.28;;;19.31;100.00
10518;BME280;5307;42.548;22.968;2023-08-06T03:34:38;92719.06;;;19.25;100.00
10518;BME280;5307;42.548;22.968;2023-08-06T03:37:05;92717.72;;;19.32;100.00
10518;BME280;5307;42.548;22.968;2023-08-06T03:39:46;92713.34;;;19.36;100.00
10518;BME280;5307;42.548;22.968;2023-08-06T03:42:13;92697.34;;;19.42;100.00
10518;BME280;5307;42.548;22.968;2023-08-06T03:44:40;92715.78;;;19.26;100.00
10518;BME280;5307;42.548;22.968;2023-08-06T03:47:10;92710.97;;;19.27;100.00
10518;BME280;5307;42.548;22.968;2023-08-06T03:49:38;92716.09;;;19.23;100.00
10518;BME280;5307;42.548;22.968;2023-08-06T03:52:05;92721.53;;;19.28;100.00
10518;BME280;5307;42.548;22.968;2023-08-06T03:54:32;92728.97;;;19.20;100.00
10518;BME280;5307;42.548;22.968;2023-08-06T03:56:59;92733.78;;;19.20;100.00
10518;BME280;5307;42.548;22.968;2023-08-06T03:59:25;92737.06;;;19.18;100.00
10518;BME280;5307;42.548;22.968;2023-08-06T04:01:52;92733.63;;;19.12;100.00
10518;BME280;5307;42.548;22.968;2023-08-06T04:04:19;92743.84;;;19.04;100.00
10518;BME280;5307;42.548;22.968;2023-08-06T04:06:47;92741.59;;;18.89;100.00
10518;BME280;5307;42.548;22.968;2023-08-06T04:09:14;92751.19;;;19.02;100.00
10518;BME280;5307;42.548;22.968;2023-08-06T04:11:40;92764.09;;;19.25;100.00
10518;BME280;5307;42.548;22.968;2023-08-06T04:14:07;92767.16;;;19.09;100.00
10518;BME280;5307;42.548;22.968;2023-08-06T04:16:34;92762.06;;;19.13;100.00
10518;BME280;5307;42.548;22.968;2023-08-06T04:19:01;92751.91;;;19.47;100.00
10518;BME280;5307;42.548;22.968;2023-08-06T04:21:28;92751.22;;;19.41;100.00
10518;BME280;5307;42.548;22.968;2023-08-06T04:23:56;92741.97;;;19.25;100.00
10518;BME280;5307;42.548;22.968;2023-08-06T04:26:25;92736.97;;;19.37;100.00
10518;BME280;5307;42.548;22.968;2023-08-06T04:28:52;92740.75;;;18.94;100.00
10518;BME280;5307;42.548;22.968;2023-08-06T04:31:18;92742.72;;;19.39;100.00
10518;BME280;5307;42.548;22.968;2023-08-06T04:33:45;92733.25;;;19.48;100.00
10518;BME280;5307;42.548;22.968;2023-08-06T04:36:12;92738.28;;;19.63;100.00
10518;BME280;5307;42.548;22.968;2023-08-06T04:38:40;92746.59;;;19.63;100.00
10518;BME280;5307;42.548;22.968;2023-08-06T04:41:11;92740.50;;;19.51;100.00
10518;BME280;5307;42.548;22.968;2023-08-06T04:43:38;92741.56;;;19.35;100.00
10518;BME280;5307;42.548;22.968;2023-08-06T04:46:05;92742.97;;;19.68;100.00
10518;BME280;5307;42.548;22.968;2023-08-06T04:48:32;92738.38;;;19.70;100.00
10518;BME280;5307;42.548;22.968;2023-08-06T04:50:58;92734.13;;;19.43;100.00
10518;BME280;5307;42.548;22.968;2023-08-06T04:53:25;92732.94;;;19.51;100.00
10518;BME280;5307;42.548;22.968;2023-08-06T04:55:52;92737.75;;;19.64;100.00
10518;BME280;5307;42.548;22.968;2023-08-06T04:58:20;92729.41;;;19.24;100.00
10518;BME280;5307;42.548;22.968;2023-08-06T05:00:47;92730.16;;;19.25;100.00
10518;BME280;5307;42.548;22.968;2023-08-06T05:03:14;92726.75;;;19.19;100.00
10518;BME280;5307;42.548;22.968;2023-08-06T05:05:41;92735.41;;;19.68;100.00
10518;BME280;5307;42.548;22.968;2023-08-06T05:08:13;92725.19;;;19.63;100.00
10518;BME280;5307;42.548;22.968;2023-08-06T05:10:42;92713.03;;;19.66;100.00
10518;BME280;5307;42.548;22.968;2023-08-06T05:13:09;92720.56;;;19.92;100.00
10518;BME280;5307;42.548;22.968;2023-08-06T05:15:37;92707.31;;;19.98;100.00
10518;BME280;5307;42.548;22.968;2023-08-06T05:18:05;92707.16;;;19.70;100.00
10518;BME280;5307;42.548;22.968;2023-08-06T05:20:35;92701.13;;;19.71;100.00
10518;BME280;5307;42.548;22.968;2023-08-06T05:23:02;92700.56;;;19.86;100.00
10518;BME280;5307;42.548;22.968;2023-08-06T05:25:29;92705.13;;;19.83;100.00
10518;BME280;5307;42.548;22.968;2023-08-06T05:27:56;92702.47;;;19.91;100.00
10518;BME280;5307;42.548;22.968;2023-08-06T05:30:23;92700.59;;;20.07;100.00
10518;BME280;5307;42.548;22.968;2023-08-06T05:32:51;92702.66;;;19.93;100.00
10518;BME280;5307;42.548;22.968;2023-08-06T05:35:18;92707.59;;;19.87;100.00
10518;BME280;5307;42.548;22.968;2023-08-06T05:37:45;92707.13;;;19.96;100.00
10518;BME280;5307;42.548;22.968;2023-08-06T05:40:12;92709.63;;;19.86;100.00
10518;BME280;5307;42.548;22.968;2023-08-06T05:42:39;92702.69;;;19.80;100.00
10518;BME280;5307;42.548;22.968;2023-08-06T05:45:06;92699.56;;;19.97;100.00
10518;BME280;5307;42.548;22.968;2023-08-06T05:47:33;92693.16;;;20.02;100.00
10518;BME280;5307;42.548;22.968;2023-08-06T05:50:01;92699.84;;;20.06;100.00
10518;BME280;5307;42.548;22.968;2023-08-06T05:52:28;92704.19;;;20.28;100.00
10518;BME280;5307;42.548;22.968;2023-08-06T05:54:55;92707.72;;;20.15;100.00
10518;BME280;5307;42.548;22.968;2023-08-06T05:57:21;92704.97;;;20.15;100.00
10518;BME280;5307;42.548;22.968;2023-08-06T05:59:48;92715.50;;;20.17;100.00
10518;BME280;5307;42.548;22.968;2023-08-06T06:02:15;92720.50;;;20.19;100.00
10518;BME280;5307;42.548;22.968;2023-08-06T06:04:44;92718.63;;;20.13;100.00
10518;BME280;5307;42.548;22.968;2023-08-06T06:07:12;92734.34;;;20.45;100.00
10518;BME280;5307;42.548;22.968;2023-08-06T06:09:39;92719.06;;;20.72;100.00
10518;BME280;5307;42.548;22.968;2023-08-06T06:12:06;92724.03;;;20.53;100.00
10518;BME280;5307;42.548;22.968;2023-08-06T06:14:33;92737.41;;;20.75;100.00
10518;BME280;5307;42.548;22.968;2023-08-06T06:17:00;92747.59;;;21.22;100.00
10518;BME280;5307;42.548;22.968;2023-08-06T06:19:27;92748.91;;;20.80;100.00
10518;BME280;5307;42.548;22.968;2023-08-06T06:21:53;92740.56;;;20.80;100.00
10518;BME280;5307;42.548;22.968;2023-08-06T06:24:24;92748.97;;;21.08;100.00
10518;BME280;5307;42.548;22.968;2023-08-06T06:26:51;92759.81;;;21.40;100.00
10518;BME280;5307;42.548;22.968;2023-08-06T06:29:18;92754.75;;;21.59;100.00
10518;BME280;5307;42.548;22.968;2023-08-06T06:31:44;92748.94;;;22.07;100.00
10518;BME280;5307;42.548;22.968;2023-08-06T06:34:11;92762.34;;;22.23;100.00
10518;BME280;5307;42.548;22.968;2023-08-06T06:36:38;92754.44;;;21.99;97.56
10518;BME280;5307;42.548;22.968;2023-08-06T06:39:05;92748.44;;;21.30;100.00
10518;BME280;5307;42.548;22.968;2023-08-06T06:41:33;92764.47;;;21.24;100.00
10518;BME280;5307;42.548;22.968;2023-08-06T06:44:00;92757.09;;;21.48;100.00
10518;BME280;5307;42.548;22.968;2023-08-06T06:46:27;92752.16;;;21.33;99.19
10518;BME280;5307;42.548;22.968;2023-08-06T06:48:53;92756.97;;;22.18;96.10
10518;BME280;5307;42.548;22.968;2023-08-06T06:51:20;92761.75;;;22.61;91.03
10518;BME280;5307;42.548;22.968;2023-08-06T06:53:47;92762.88;;;22.14;90.51
10518;BME280;5307;42.548;22.968;2023-08-06T06:56:14;92755.28;;;22.15;90.80
10518;BME280;5307;42.548;22.968;2023-08-06T06:58:42;92759.50;;;22.08;90.15
10518;BME280;5307;42.548;22.968;2023-08-06T07:01:09;92763.91;;;22.40;90.63
10518;BME280;5307;42.548;22.968;2023-08-06T07:03:37;92773.03;;;23.37;85.06
10518;BME280;5307;42.548;22.968;2023-08-06T07:06:04;92774.16;;;23.27;81.99
10518;BME280;5307;42.548;22.968;2023-08-06T07:08:31;92773.97;;;23.63;79.51
10518;BME280;5307;42.548;22.968;2023-08-06T07:11:01;92778.22;;;23.94;74.03
10518;BME280;5307;42.548;22.968;2023-08-06T07:13:28;92778.22;;;23.18;71.57
10518;BME280;5307;42.548;22.968;2023-08-06T07:15:57;92776.31;;;22.90;77.42
10518;BME280;5307;42.548;22.968;2023-08-06T07:18:24;92781.03;;;23.26;79.08
10518;BME280;5307;42.548;22.968;2023-08-06T07:20:51;92781.78;;;23.80;74.53
10518;BME280;5307;42.548;22.968;2023-08-06T07:23:20;92781.19;;;23.28;77.60
10518;BME280;5307;42.548;22.968;2023-08-06T07:25:46;92787.88;;;22.50;75.98
10518;BME280;5307;42.548;22.968;2023-08-06T07:28:14;92779.53;;;23.09;76.61
10518;BME280;5307;42.548;22.968;2023-08-06T07:30:41;92783.25;;;23.73;75.91
10518;BME280;5307;42.548;22.968;2023-08-06T07:33:10;92775.25;;;23.08;72.08
10518;BME280;5307;42.548;22.968;2023-08-06T07:35:37;92780.50;;;23.65;72.56
10518;BME280;5307;42.548;22.968;2023-08-06T07:38:04;92764.75;;;22.78;70.28
10518;BME280;5307;42.548;22.968;2023-08-06T07:40:31;92776.75;;;23.71;69.53
10518;BME280;5307;42.548;22.968;2023-08-06T07:42:58;92775.63;;;23.51;68.98
10518;BME280;5307;42.548;22.968;2023-08-06T07:45:25;92786.56;;;23.33;67.33
10518;BME280;5307;42.548;22.968;2023-08-06T07:47:52;92778.38;;;24.67;67.04
10518;BME280;5307;42.548;22.968;2023-08-06T07:50:20;92777.88;;;24.53;66.46
10518;BME280;5307;42.548;22.968;2023-08-06T07:52:47;92771.03;;;24.39;66.93
10518;BME280;5307;42.548;22.968;2023-08-06T07:55:13;92778.63;;;24.86;71.75
10518;BME280;5307;42.548;22.968;2023-08-06T07:57:41;92775.88;;;24.79;66.83
10518;BME280;5307;42.548;22.968;2023-08-06T08:00:08;92772.22;;;24.13;67.46
10518;BME280;5307;42.548;22.968;2023-08-06T08:02:35;92773.69;;;24.14;66.88
10518;BME280;5307;42.548;22.968;2023-08-06T08:05:03;92771.59;;;24.38;66.55
10518;BME280;5307;42.548;22.968;2023-08-06T08:07:31;92768.13;;;24.07;67.46
10518;BME280;5307;42.548;22.968;2023-08-06T08:09:58;92773.34;;;24.66;67.17
10518;BME280;5307;42.548;22.968;2023-08-06T08:12:27;92772.72;;;25.40;64.87
10518;BME280;5307;42.548;22.968;2023-08-06T08:14:53;92763.00;;;25.91;62.82
10518;BME280;5307;42.548;22.968;2023-08-06T08:17:20;92763.81;;;25.09;64.04
10518;BME280;5307;42.548;22.968;2023-08-06T08:19:47;92773.88;;;24.72;63.43
10518;BME280;5307;42.548;22.968;2023-08-06T08:22:14;92783.41;;;23.90;63.94
10518;BME280;5307;42.548;22.968;2023-08-06T08:24:42;92779.38;;;23.68;65.08
10518;BME280;5307;42.548;22.968;2023-08-06T08:27:09;92773.19;;;24.64;66.77
10518;BME280;5307;42.548;22.968;2023-08-06T08:29:36;92759.00;;;24.69;65.24
10518;BME280;5307;42.548;22.968;2023-08-06T08:32:02;92765.88;;;24.68;65.90
10518;BME280;5307;42.548;22.968;2023-08-06T08:34:29;92764.41;;;24.67;63.09
10518;BME280;5307;42.548;22.968;2023-08-06T08:36:56;92763.38;;;25.20;60.96
10518;BME280;5307;42.548;22.968;2023-08-06T08:39:24;92761.31;;;25.45;60.75
10518;BME280;5307;42.548;22.968;2023-08-06T08:41:52;92761.81;;;25.52;60.17
10518;BME280;5307;42.548;22.968;2023-08-06T08:44:19;92761.69;;;25.67;57.25
10518;BME280;5307;42.548;22.968;2023-08-06T08:46:47;92755.53;;;25.43;58.53
10518;BME280;5307;42.548;22.968;2023-08-06T08:49:15;92751.97;;;26.10;59.04
10518;BME280;5307;42.548;22.968;2023-08-06T08:51:43;92751.69;;;26.68;56.73
10518;BME280;5307;42.548;22.968;2023-08-06T08:54:13;92747.28;;;26.13;55.71
10518;BME280;5307;42.548;22.968;2023-08-06T08:56:41;92748.81;;;25.89;55.90
10518;BME280;5307;42.548;22.968;2023-08-06T08:59:11;92744.06;;;26.33;54.18
10518;BME280;5307;42.548;22.968;2023-08-06T09:01:38;92756.78;;;25.75;56.80
10518;BME280;5307;42.548;22.968;2023-08-06T09:04:07;92748.31;;;25.40;56.62
10518;BME280;5307;42.548;22.968;2023-08-06T09:06:37;92745.34;;;25.38;58.80
10518;BME280;5307;42.548;22.968;2023-08-06T09:09:08;92748.66;;;25.20;62.40
10518;BME280;5307;42.548;22.968;2023-08-06T09:11:37;92757.53;;;25.01;60.18
10518;BME280;5307;42.548;22.968;2023-08-06T09:14:06;92757.88;;;25.05;61.61
10518;BME280;5307;42.548;22.968;2023-08-06T09:16:36;92761.44;;;24.98;62.36
10518;BME280;5307;42.548;22.968;2023-08-06T09:19:12;92748.25;;;25.23;62.32
10518;BME280;5307;42.548;22.968;2023-08-06T09:21:41;92746.69;;;25.30;61.84
10518;BME280;5307;42.548;22.968;2023-08-06T09:24:09;92745.75;;;25.10;56.54
10518;BME280;5307;42.548;22.968;2023-08-06T09:26:36;92744.63;;;25.80;56.39
10518;BME280;5307;42.548;22.968;2023-08-06T09:29:05;92744.59;;;25.63;55.90
10518;BME280;5307;42.548;22.968;2023-08-06T09:31:33;92747.44;;;25.30;57.05
10518;BME280;5307;42.548;22.968;2023-08-06T09:34:02;92749.31;;;25.03;58.15
10518;BME280;5307;42.548;22.968;2023-08-06T09:36:29;92746.41;;;25.18;59.51
10518;BME280;5307;42.548;22.968;2023-08-06T09:38:56;92752.41;;;24.82;60.47
10518;BME280;5307;42.548;22.968;2023-08-06T09:41:26;92755.53;;;24.86;60.67
10518;BME280;5307;42.548;22.968;2023-08-06T09:43:54;92763.00;;;24.83;61.50
10518;BME280;5307;42.548;22.968;2023-08-06T09:46:21;92749.03;;;24.83;60.90
10518;BME280;5307;42.548;22.968;2023-08-06T09:48:48;92750.53;;;25.17;58.74
10518;BME280;5307;42.548;22.968;2023-08-06T09:51:18;92755.66;;;25.53;58.17
10518;BME280;5307;42.548;22.968;2023-08-06T09:53:46;92748.66;;;24.47;57.35
10518;BME280;5307;42.548;22.968;2023-08-06T09:56:15;92759.16;;;24.31;59.62
10518;BME280;5307;42.548;22.968;2023-08-06T09:58:44;92753.19;;;24.27;58.94
10518;BME280;5307;42.548;22.968;2023-08-06T10:01:14;92748.81;;;24.09;57.90
10518;BME280;5307;42.548;22.968;2023-08-06T10:03:42;92759.63;;;24.52;59.54
10518;BME280;5307;42.548;22.968;2023-08-06T10:06:10;92758.13;;;25.24;59.50
10518;BME280;5307;42.548;22.968;2023-08-06T10:08:39;92762.56;;;25.52;61.37
10518;BME280;5307;42.548;22.968;2023-08-06T10:11:07;92762.25;;;24.50;59.45
10518;BME280;5307;42.548;22.968;2023-08-06T10:16:58;92765.28;;;24.77;60.40
10518;BME280;5307;42.548;22.968;2023-08-06T10:19:25;92761.75;;;25.09;59.70
10518;BME280;5307;42.548;22.968;2023-08-06T10:22:08;92754.91;;;24.63;59.81
10518;BME280;5307;42.548;22.968;2023-08-06T10:24:47;92767.31;;;24.29;61.23
10518;BME280;5307;42.548;22.968;2023-08-06T10:27:20;92768.34;;;24.64;62.84
10518;BME280;5307;42.548;22.968;2023-08-06T10:29:46;92761.94;;;25.11;61.76
10518;BME280;5307;42.548;22.968;2023-08-06T10:32:13;92761.81;;;25.02;60.32
10518;BME280;5307;42.548;22.968;2023-08-06T10:34:56;92763.94;;;25.43;60.81
10518;BME280;5307;42.548;22.968;2023-08-06T10:37:24;92758.22;;;25.84;57.79
10518;BME280;5307;42.548;22.968;2023-08-06T10:39:52;92767.03;;;24.98;58.43
10518;BME280;5307;42.548;22.968;2023-08-06T10:42:22;92761.03;;;25.09;56.36
10518;BME280;5307;42.548;22.968;2023-08-06T10:45:11;92752.78;;;25.61;54.88
10518;BME280;5307;42.548;22.968;2023-08-06T10:47:37;92753.63;;;24.96;53.64
10518;BME280;5307;42.548;22.968;2023-08-06T10:50:06;92754.69;;;25.33;54.60
10518;BME280;5307;42.548;22.968;2023-08-06T10:52:33;92757.72;;;25.78;54.50
10518;BME280;5307;42.548;22.968;2023-08-06T10:55:02;92743.00;;;26.46;54.83
10518;BME280;5307;42.548;22.968;2023-08-06T10:57:28;92743.31;;;25.81;52.37
10518;BME280;5307;42.548;22.968;2023-08-06T10:59:55;92752.53;;;26.26;52.48
10518;BME280;5307;42.548;22.968;2023-08-06T11:02:22;92764.66;;;26.46;51.13
10518;BME280;5307;42.548;22.968;2023-08-06T11:04:49;92758.88;;;26.61;52.68
10518;BME280;5307;42.548;22.968;2023-08-06T11:07:16;92766.97;;;26.40;48.36
10518;BME280;5307;42.548;22.968;2023-08-06T11:09:42;92764.88;;;26.75;49.86
10518;BME280;5307;42.548;22.968;2023-08-06T11:12:11;92743.03;;;26.73;49.20
10518;BME280;5307;42.548;22.968;2023-08-06T11:14:38;92744.06;;;26.33;48.36
10518;BME280;5307;42.548;22.968;2023-08-06T11:17:05;92746.09;;;26.68;49.51
10518;BME280;5307;42.548;22.968;2023-08-06T11:19:32;92743.41;;;26.43;48.71
10518;BME280;5307;42.548;22.968;2023-08-06T11:21:58;92745.31;;;26.23;51.25
10518;BME280;5307;42.548;22.968;2023-08-06T11:24:26;92736.34;;;26.24;49.44
10518;BME280;5307;42.548;22.968;2023-08-06T11:26:53;92735.16;;;25.75;50.60
10518;BME280;5307;42.548;22.968;2023-08-06T11:29:21;92750.41;;;25.99;50.42
10518;BME280;5307;42.548;22.968;2023-08-06T11:31:49;92739.03;;;25.55;49.62
10518;BME280;5307;42.548;22.968;2023-08-06T11:34:16;92740.84;;;26.02;47.00
10518;BME280;5307;42.548;22.968;2023-08-06T11:36:43;92736.09;;;25.78;48.18
10518;BME280;5307;42.548;22.968;2023-08-06T11:39:10;92736.56;;;26.01;49.91
10518;BME280;5307;42.548;22.968;2023-08-06T11:41:38;92734.34;;;26.00;49.67
10518;BME280;5307;42.548;22.968;2023-08-06T11:44:05;92744.16;;;26.09;49.46
10518;BME280;5307;42.548;22.968;2023-08-06T11:46:50;92741.00;;;25.70;47.71
10518;BME280;5307;42.548;22.968;2023-08-06T11:49:18;92749.25;;;26.20;48.51
10518;BME280;5307;42.548;22.968;2023-08-06T11:51:47;92748.22;;;26.77;49.35
10518;BME280;5307;42.548;22.968;2023-08-06T11:54:14;92743.84;;;26.39;47.94
10518;BME280;5307;42.548;22.968;2023-08-06T11:56:41;92739.59;;;26.65;47.61
10518;BME280;5307;42.548;22.968;2023-08-06T11:59:08;92744.81;;;26.51;47.03
10518;BME280;5307;42.548;22.968;2023-08-06T12:01:35;92735.00;;;26.87;45.63
10518;BME280;5307;42.548;22.968;2023-08-06T12:04:05;92737.63;;;26.85;47.01
10518;BME280;5307;42.548;22.968;2023-08-06T12:06:41;92739.22;;;26.51;46.09
10518;BME280;5307;42.548;22.968;2023-08-06T12:09:08;92737.41;;;27.00;46.79
10518;BME280;5307;42.548;22.968;2023-08-06T12:11:35;92742.41;;;26.92;45.23
10518;BME280;5307;42.548;22.968;2023-08-06T12:14:02;92737.78;;;26.60;48.46
10518;BME280;5307;42.548;22.968;2023-08-06T12:16:29;92729.66;;;26.02;47.36
10518;BME280;5307;42.548;22.968;2023-08-06T12:18:55;92734.13;;;26.40;46.85
10518;BME280;5307;42.548;22.968;2023-08-06T12:21:24;92730.66;;;26.49;49.19
10518;BME280;5307;42.548;22.968;2023-08-06T12:23:50;92741.63;;;26.38;48.88
10518;BME280;5307;42.548;22.968;2023-08-06T12:26:17;92731.78;;;26.46;47.43
10518;BME280;5307;42.548;22.968;2023-08-06T12:28:44;92733.69;;;26.61;46.25
10518;BME280;5307;42.548;22.968;2023-08-06T12:31:10;92733.19;;;26.55;44.79
10518;BME280;5307;42.548;22.968;2023-08-06T12:33:37;92725.91;;;26.96;45.98
10518;BME280;5307;42.548;22.968;2023-08-06T12:36:04;92737.50;;;26.21;43.45
10518;BME280;5307;42.548;22.968;2023-08-06T12:38:32;92728.63;;;26.77;47.55
10518;BME280;5307;42.548;22.968;2023-08-06T12:40:59;92722.84;;;26.75;45.18
10518;BME280;5307;42.548;22.968;2023-08-06T12:43:26;92722.22;;;26.67;46.04
10518;BME280;5307;42.548;22.968;2023-08-06T12:45:52;92724.72;;;26.45;44.13
10518;BME280;5307;42.548;22.968;2023-08-06T12:48:19;92727.19;;;26.24;46.92
10518;BME280;5307;42.548;22.968;2023-08-06T12:50:46;92717.34;;;26.06;46.17
10518;BME280;5307;42.548;22.968;2023-08-06T12:53:14;92711.91;;;26.08;45.22
10518;BME280;5307;42.548;22.968;2023-08-06T12:55:43;92708.91;;;26.23;48.01
10518;BME280;5307;42.548;22.968;2023-08-06T12:58:09;92718.94;;;26.43;47.67
10518;BME280;5307;42.548;22.968;2023-08-06T13:00:36;92720.03;;;25.96;43.82
10518;BME280;5307;42.548;22.968;2023-08-06T13:03:03;92714.69;;;26.08;43.16